createdAt,value
2018-06-04T00:01:36.857Z,8.60
2018-06-04T00:04:05.381Z,9.40
2018-06-04T00:06:34.120Z,9.73
2018-06-04T00:09:02.571Z,9.28
2018-06-04T00:11:31.095Z,8.90
2018-06-04T00:13:59.783Z,9.20
2018-06-04T00:16:28.271Z,8.55
2018-06-04T00:18:56.749Z,8.85
2018-06-04T00:21:25.212Z,9.28
2018-06-04T00:23:53.826Z,9.83
2018-06-04T00:26:22.234Z,9.65
2018-06-04T00:28:50.761Z,8.90
2018-06-04T00:31:18.904Z,10.10
2018-06-04T00:33:47.781Z,9.33
2018-06-04T00:36:16.322Z,9.53
2018-06-04T00:38:44.826Z,9.25
2018-06-04T00:41:13.374Z,10.08
2018-06-04T00:43:41.904Z,9.30
2018-06-04T00:46:10.017Z,9.33
2018-06-04T00:48:38.438Z,9.43
2018-06-04T00:51:07.013Z,9.78
2018-06-04T00:53:35.458Z,9.35
2018-06-04T00:56:15.301Z,9.25
2018-06-04T00:58:43.830Z,10.95
2018-06-04T01:01:12.410Z,10.18
2018-06-04T01:03:40.879Z,9.75
2018-06-04T01:06:09.478Z,9.83
2018-06-04T01:08:37.960Z,9.25
2018-06-04T01:11:07.501Z,8.73
2018-06-04T01:13:35.715Z,8.93
2018-06-04T01:16:04.190Z,8.63
2018-06-04T01:18:32.646Z,8.78
2018-06-04T01:21:01.117Z,9.53
2018-06-04T01:23:29.580Z,9.00
2018-06-04T01:25:58.037Z,8.50
2018-06-04T01:28:26.168Z,8.70
2018-06-04T01:30:54.611Z,8.78
2018-06-04T01:33:23.073Z,8.65
2018-06-04T01:35:51.167Z,8.23
2018-06-04T01:38:19.581Z,8.65
2018-06-04T01:40:48.024Z,8.80
2018-06-04T01:43:16.488Z,8.30
2018-06-04T01:45:44.628Z,8.85
2018-06-04T01:48:13.052Z,8.63
2018-06-04T01:50:41.240Z,9.50
2018-06-04T01:53:09.638Z,9.43
2018-06-04T01:55:38.140Z,8.68
2018-06-04T01:58:06.549Z,9.08
2018-06-04T02:00:34.977Z,8.65
2018-06-04T02:03:03.417Z,8.28
2018-06-04T02:05:31.855Z,8.93
2018-06-04T02:08:00.294Z,8.90
2018-06-04T02:10:28.761Z,9.40
2018-06-04T02:12:57.194Z,9.58
2018-06-04T02:15:25.597Z,9.55
2018-06-04T02:17:54.053Z,10.03
2018-06-04T02:20:22.561Z,9.48
2018-06-04T02:22:50.687Z,10.10
2018-06-04T02:25:19.141Z,10.05
2018-06-04T02:27:47.582Z,10.53
2018-06-04T02:30:16.688Z,9.60
2018-06-04T02:32:45.170Z,10.53
2018-06-04T02:35:13.599Z,10.68
2018-06-04T02:37:41.999Z,10.88
2018-06-04T02:40:10.542Z,11.60
2018-06-04T02:42:38.646Z,10.95
2018-06-04T02:45:07.099Z,11.05
2018-06-04T02:47:35.254Z,11.75
2018-06-04T02:50:04.007Z,10.82
2018-06-04T02:52:32.329Z,11.50
2018-06-04T02:55:00.802Z,11.93
2018-06-04T02:57:29.225Z,11.85
2018-06-04T02:59:57.368Z,11.50
2018-06-04T03:02:25.809Z,11.55
2018-06-04T03:04:54.224Z,13.15
2018-06-04T03:07:22.659Z,12.70
2018-06-04T03:09:51.181Z,12.65
2018-06-04T03:12:19.648Z,12.75
2018-06-04T03:14:47.780Z,12.23
2018-06-04T03:17:16.205Z,11.20
2018-06-04T03:19:44.681Z,12.43
2018-06-04T03:22:13.140Z,13.30
2018-06-04T03:24:41.649Z,12.13
2018-06-04T03:27:10.075Z,11.30
2018-06-04T03:29:38.505Z,11.53
2018-06-04T03:32:06.964Z,11.10
2018-06-04T03:34:35.397Z,11.18
2018-06-04T03:37:03.593Z,11.80
2018-06-04T03:39:31.748Z,12.05
2018-06-04T03:41:59.911Z,12.93
2018-06-04T03:44:28.337Z,12.88
2018-06-04T03:46:56.789Z,12.60
2018-06-04T03:49:25.231Z,13.40
2018-06-04T03:51:53.677Z,14.65
2018-06-04T03:54:21.856Z,12.80
2018-06-04T03:56:50.291Z,12.73
2018-06-04T03:59:18.733Z,13.32
2018-06-04T04:01:47.221Z,12.75
2018-06-04T04:04:15.320Z,12.47
2018-06-04T04:06:44.008Z,12.60
2018-06-04T04:09:12.529Z,13.15
2018-06-04T04:11:40.929Z,13.00
2018-06-04T04:14:09.993Z,13.13
2018-06-04T04:16:39.670Z,12.23
2018-06-04T04:19:08.094Z,13.75
2018-06-04T04:21:36.530Z,13.78
2018-06-04T04:24:05.024Z,13.58
2018-06-04T04:26:33.137Z,12.55
2018-06-04T04:29:01.585Z,14.00
2018-06-04T04:31:29.753Z,13.50
2018-06-04T04:33:57.857Z,13.05
2018-06-04T04:36:26.281Z,14.05
2018-06-04T04:38:54.706Z,12.93
2018-06-04T04:41:22.838Z,12.33
2018-06-04T04:43:51.277Z,11.95
2018-06-04T04:46:19.729Z,13.35
2018-06-04T04:48:49.145Z,13.18
2018-06-04T04:51:17.590Z,14.78
2018-06-04T04:53:46.074Z,12.43
2018-06-04T04:56:14.556Z,13.58
2018-06-04T04:58:43.065Z,12.70
2018-06-04T05:01:11.525Z,12.80
2018-06-04T05:03:40.026Z,11.80
2018-06-04T05:06:08.493Z,12.05
2018-06-04T05:08:37.239Z,12.98
2018-06-04T05:11:05.679Z,12.37
2018-06-04T05:13:34.175Z,11.80
2018-06-04T05:16:02.647Z,13.98
2018-06-04T05:18:31.145Z,11.53
2018-06-04T05:20:59.694Z,12.20
2018-06-04T05:23:28.141Z,17.42
2018-06-04T05:25:56.575Z,11.73
2018-06-04T05:28:24.986Z,11.15
2018-06-04T05:30:53.455Z,11.45
2018-06-04T05:33:21.894Z,11.83
2018-06-04T05:35:50.325Z,10.50
2018-06-04T05:38:18.757Z,10.75
2018-06-04T05:40:47.746Z,10.63
2018-06-04T05:43:16.193Z,10.98
2018-06-04T05:45:44.645Z,11.65
2018-06-04T05:48:12.788Z,11.38
2018-06-04T05:50:41.313Z,11.55
2018-06-04T05:53:09.794Z,10.25
2018-06-04T05:55:37.900Z,12.73
2018-06-04T05:58:06.345Z,11.45
2018-06-04T06:00:34.821Z,11.00
2018-06-04T06:03:03.266Z,10.88
2018-06-04T06:05:31.729Z,11.05
2018-06-04T06:08:00.202Z,10.58
2018-06-04T06:10:28.899Z,10.15
2018-06-04T06:12:57.029Z,10.98
2018-06-04T06:15:25.484Z,9.88
2018-06-04T06:17:53.932Z,10.32
2018-06-04T06:20:22.458Z,10.10
2018-06-04T06:22:50.893Z,10.45
2018-06-04T06:25:19.304Z,11.57
2018-06-04T06:27:47.773Z,9.80
2018-06-04T06:30:15.879Z,10.03
2018-06-04T06:32:44.473Z,9.15
2018-06-04T06:35:12.913Z,9.13
2018-06-04T06:37:41.375Z,9.03
2018-06-04T06:40:09.777Z,8.85
2018-06-04T06:42:38.185Z,8.25
2018-06-04T06:45:07.130Z,8.15
2018-06-04T06:47:35.544Z,8.60
2018-06-04T06:50:04.354Z,8.55
2018-06-04T06:52:32.814Z,9.28
2018-06-04T06:55:02.152Z,8.15
2018-06-04T06:57:30.593Z,9.10
2018-06-04T06:59:59.038Z,7.25
2018-06-04T07:02:27.467Z,7.45
2018-06-04T07:04:56.002Z,7.20
2018-06-04T07:07:24.902Z,6.58
2018-06-04T07:09:53.948Z,7.45
2018-06-04T07:12:22.658Z,5.83
2018-06-04T07:14:51.291Z,6.55
2018-06-04T07:17:19.858Z,6.10
2018-06-04T07:19:48.633Z,5.87
2018-06-04T07:22:17.164Z,8.40
2018-06-04T07:24:45.602Z,7.10
2018-06-04T07:27:14.246Z,6.90
2018-06-04T07:29:42.960Z,5.85
2018-06-04T07:32:11.567Z,6.25
2018-06-04T07:34:40.300Z,5.30
2018-06-04T07:37:09.372Z,4.78
2018-06-04T07:39:39.731Z,6.12
2018-06-04T07:42:09.485Z,5.87
2018-06-04T07:44:38.644Z,5.85
2018-06-04T07:47:08.460Z,5.67
2018-06-04T07:49:37.408Z,5.83
2018-06-04T07:52:06.012Z,5.78
2018-06-04T07:54:34.988Z,5.58
2018-06-04T07:57:04.341Z,5.45
2018-06-04T07:59:33.615Z,4.95
2018-06-04T08:02:03.272Z,5.12
2018-06-04T08:04:32.987Z,5.40
2018-06-04T08:07:02.406Z,5.92
2018-06-04T08:09:32.024Z,4.75
2018-06-04T08:12:01.104Z,5.20
2018-06-04T08:14:30.966Z,6.40
2018-06-04T08:16:59.995Z,5.22
2018-06-04T08:19:28.133Z,5.15
2018-06-04T08:21:56.594Z,7.25
2018-06-04T08:24:25.089Z,7.78
2018-06-04T08:26:53.545Z,5.35
2018-06-04T08:29:22.052Z,5.22
2018-06-04T08:31:50.437Z,5.50
2018-06-04T08:34:19.151Z,6.62
2018-06-04T08:36:47.578Z,6.05
2018-06-04T08:39:16.010Z,7.28
2018-06-04T08:41:44.539Z,6.80
2018-06-04T08:44:13.071Z,6.75
2018-06-04T08:46:41.532Z,6.62
2018-06-04T08:49:10.086Z,6.92
2018-06-04T08:51:38.516Z,5.72
2018-06-04T08:54:07.017Z,5.75
2018-06-04T08:56:35.516Z,6.00
2018-06-04T08:59:03.982Z,6.25
2018-06-04T09:01:32.598Z,5.87
2018-06-04T09:04:01.134Z,5.75
2018-06-04T09:06:29.569Z,5.78
2018-06-04T09:08:58.024Z,6.05
2018-06-04T09:11:26.535Z,5.28
2018-06-04T09:13:55.658Z,5.40
2018-06-04T09:16:24.432Z,4.97
2018-06-04T09:18:52.966Z,4.45
2018-06-04T09:21:21.386Z,5.90
2018-06-04T09:23:49.797Z,4.97
2018-06-04T09:26:18.505Z,5.72
2018-06-04T09:28:46.940Z,3.08
2018-06-04T09:31:15.346Z,3.35
2018-06-04T09:33:43.803Z,3.33
2018-06-04T09:36:12.308Z,3.02
2018-06-04T09:38:40.759Z,2.67
2018-06-04T09:41:09.230Z,2.80
2018-06-04T09:43:37.669Z,2.80
2018-06-04T09:46:06.177Z,2.75
2018-06-04T09:48:34.657Z,2.98
2018-06-04T09:51:03.149Z,3.08
2018-06-04T09:53:31.297Z,2.80
2018-06-04T09:55:59.737Z,4.50
2018-06-04T09:58:28.207Z,2.52
2018-06-04T10:00:56.759Z,2.98
2018-06-04T10:03:25.280Z,3.05
2018-06-04T10:05:53.449Z,2.77
2018-06-04T10:08:22.045Z,2.85
2018-06-04T10:10:50.248Z,4.35
2018-06-04T10:13:18.676Z,3.12
2018-06-04T10:15:47.194Z,2.87
2018-06-04T10:18:15.921Z,2.50
2018-06-04T10:20:44.417Z,2.95
2018-06-04T10:23:12.880Z,2.90
2018-06-04T10:25:41.329Z,2.58
2018-06-04T10:28:09.769Z,2.42
2018-06-04T10:30:38.251Z,2.42
2018-06-04T10:33:06.836Z,2.75
2018-06-04T10:35:35.265Z,2.62
2018-06-04T10:38:03.737Z,2.77
2018-06-04T10:40:32.248Z,2.45
2018-06-04T10:43:00.717Z,2.55
2018-06-04T10:45:29.146Z,2.17
2018-06-04T10:47:57.565Z,2.20
2018-06-04T10:50:26.140Z,2.10
2018-06-04T10:52:54.558Z,3.25
2018-06-04T10:55:23.107Z,2.02
2018-06-04T10:57:52.616Z,2.22
2018-06-04T11:00:21.145Z,3.65
2018-06-04T11:02:49.572Z,2.25
2018-06-04T11:05:17.674Z,2.98
2018-06-04T11:07:46.149Z,2.10
2018-06-04T11:10:14.669Z,2.37
2018-06-04T11:12:43.072Z,2.35
2018-06-04T11:15:11.561Z,3.40
2018-06-04T11:17:40.160Z,2.30
2018-06-04T11:20:08.731Z,2.98
2018-06-04T11:22:37.269Z,2.52
2018-06-04T11:25:05.821Z,2.62
2018-06-04T11:27:33.941Z,2.22
2018-06-04T11:30:02.374Z,3.75
2018-06-04T11:32:30.821Z,2.58
2018-06-04T11:34:59.239Z,2.72
2018-06-04T11:37:27.673Z,2.47
2018-06-04T11:39:56.136Z,2.70
2018-06-04T11:42:24.296Z,2.47
2018-06-04T11:44:52.439Z,2.47
2018-06-04T11:47:20.877Z,2.50
2018-06-04T11:49:49.294Z,2.60
2018-06-04T11:52:17.714Z,2.98
2018-06-04T11:54:46.433Z,3.00
2018-06-04T11:57:14.576Z,3.05
2018-06-04T11:59:43.069Z,3.33
2018-06-04T12:02:11.519Z,3.35
2018-06-04T12:04:39.971Z,3.22
2018-06-04T12:07:08.389Z,4.05
2018-06-04T12:09:36.826Z,2.92
2018-06-04T12:12:04.948Z,3.62
2018-06-04T12:14:33.456Z,2.72
2018-06-04T12:17:01.889Z,2.75
2018-06-04T12:19:30.312Z,4.20
2018-06-04T12:21:58.960Z,2.35
2018-06-04T12:24:27.168Z,2.40
2018-06-04T12:26:55.649Z,2.00
2018-06-04T12:29:24.100Z,4.70
2018-06-04T12:31:55.421Z,4.25
2018-06-04T12:34:23.864Z,2.90
2018-06-04T12:36:52.313Z,4.22
2018-06-04T12:39:20.745Z,3.00
2018-06-04T12:41:49.197Z,3.27
2018-06-04T12:44:17.607Z,3.67
2018-06-04T12:46:46.029Z,3.30
2018-06-04T12:49:14.461Z,3.60
2018-06-04T12:51:42.917Z,3.22
2018-06-04T12:54:11.397Z,2.92
2018-06-04T12:56:39.845Z,2.98
2018-06-04T12:59:08.245Z,4.67
2018-06-04T13:01:36.725Z,2.87
2018-06-04T13:04:05.170Z,2.80
2018-06-04T13:06:33.597Z,2.83
2018-06-04T13:09:02.072Z,2.77
2018-06-04T13:11:30.610Z,2.95
2018-06-04T13:13:59.032Z,3.10
2018-06-04T13:16:27.517Z,3.33
2018-06-04T13:21:25.147Z,3.58
2018-06-04T13:23:53.387Z,5.47
2018-06-04T13:26:21.787Z,3.42
2018-06-04T13:28:50.236Z,4.28
2018-06-04T13:31:18.708Z,3.62
2018-06-04T13:33:47.141Z,3.75
2018-06-04T13:36:15.604Z,3.98
2018-06-04T13:38:45.022Z,3.52
2018-06-04T13:41:13.477Z,3.70
2018-06-04T13:43:41.605Z,4.12
2018-06-04T13:46:10.106Z,3.85
2018-06-04T13:48:38.550Z,5.17
2018-06-04T13:51:07.052Z,4.22
2018-06-04T13:53:35.492Z,4.33
2018-06-04T13:56:03.969Z,3.60
2018-06-04T13:58:32.068Z,4.60
2018-06-04T14:01:00.493Z,3.27
2018-06-04T14:03:28.918Z,3.67
2018-06-04T14:05:57.320Z,3.90
2018-06-04T14:08:25.761Z,3.77
2018-06-04T14:10:54.668Z,3.50
2018-06-04T14:13:23.871Z,5.00
2018-06-04T14:15:52.345Z,3.65
2018-06-04T14:18:20.745Z,3.98
2018-06-04T14:20:49.194Z,3.90
2018-06-04T14:23:17.663Z,3.85
2018-06-04T14:25:46.285Z,3.75
2018-06-04T14:28:14.749Z,3.45
2018-06-04T14:30:43.252Z,3.40
2018-06-04T14:33:11.697Z,3.20
2018-06-04T14:35:40.131Z,3.45
2018-06-04T14:38:08.873Z,3.62
2018-06-04T14:40:37.344Z,3.22
2018-06-04T14:43:05.823Z,3.50
2018-06-04T14:45:34.316Z,3.30
2018-06-04T14:48:02.724Z,3.75
2018-06-04T14:50:31.163Z,3.70
2018-06-04T14:52:59.304Z,3.60
2018-06-04T14:55:27.715Z,3.42
2018-06-04T14:57:56.172Z,3.95
2018-06-04T15:00:24.675Z,3.08
2018-06-04T15:02:53.123Z,3.80
2018-06-04T15:05:21.552Z,3.45
2018-06-04T15:07:50.100Z,3.02
2018-06-04T15:10:18.535Z,3.30
2018-06-04T15:12:46.947Z,3.70
2018-06-04T15:15:15.403Z,3.45
2018-06-04T15:17:43.658Z,4.90
2018-06-04T15:20:12.125Z,2.92
2018-06-04T15:22:40.615Z,2.87
2018-06-04T15:25:09.062Z,3.15
2018-06-04T15:27:37.720Z,4.10
2018-06-04T15:30:06.212Z,3.10
2018-06-04T15:32:34.378Z,3.17
2018-06-04T15:35:02.838Z,2.92
2018-06-04T15:37:31.343Z,3.50
2018-06-04T15:39:59.800Z,4.35
2018-06-04T15:42:28.229Z,3.20
2018-06-04T15:44:56.439Z,4.17
2018-06-04T15:47:24.577Z,3.30
2018-06-04T15:49:53.004Z,4.70
2018-06-04T15:52:21.466Z,2.92
2018-06-04T15:54:49.916Z,4.40
2018-06-04T15:57:18.330Z,3.08
2018-06-04T15:59:46.847Z,3.90
2018-06-04T16:02:14.988Z,4.47
2018-06-04T16:04:43.431Z,3.10
2018-06-04T16:07:11.853Z,3.12
2018-06-04T16:09:40.257Z,3.37
2018-06-04T16:12:08.445Z,3.67
2018-06-04T16:14:36.658Z,4.22
2018-06-04T16:17:05.085Z,3.67
2018-06-04T16:19:33.536Z,3.65
2018-06-04T16:22:02.020Z,2.80
2018-06-04T16:24:30.429Z,3.17
2018-06-04T16:26:58.856Z,5.28
2018-06-04T16:29:27.530Z,2.80
2018-06-04T16:31:55.648Z,2.72
2018-06-04T16:34:24.069Z,3.00
2018-06-04T16:36:52.515Z,3.08
2018-06-04T16:39:20.941Z,3.10
2018-06-04T16:41:49.362Z,3.12
2018-06-04T16:44:17.500Z,3.92
2018-06-04T16:46:46.136Z,2.87
2018-06-04T16:49:14.556Z,3.40
2018-06-04T16:51:43.098Z,2.92
2018-06-04T16:54:11.679Z,4.85
2018-06-04T16:56:39.845Z,3.37
2018-06-04T16:59:08.311Z,3.60
2018-06-04T17:01:36.720Z,4.50
2018-06-04T17:04:04.960Z,3.33
2018-06-04T17:06:33.472Z,3.80
2018-06-04T17:09:01.955Z,2.65
2018-06-04T17:11:30.469Z,3.20
2018-06-04T17:13:58.662Z,3.17
2018-06-04T17:16:26.801Z,3.17
2018-06-04T17:18:55.240Z,3.12
2018-06-04T17:21:23.796Z,3.00
2018-06-04T17:23:51.933Z,3.00
2018-06-04T17:26:20.035Z,3.47
2018-06-04T17:28:48.713Z,3.47
2018-06-04T17:31:17.314Z,3.08
2018-06-04T17:33:45.769Z,2.98
2018-06-04T17:36:14.268Z,3.47
2018-06-04T17:38:42.738Z,3.87
2018-06-04T17:41:11.142Z,3.90
2018-06-04T17:43:39.625Z,5.10
2018-06-04T17:46:08.054Z,3.80
2018-06-04T17:48:36.195Z,3.42
2018-06-04T17:51:04.817Z,6.58
2018-06-04T17:53:32.936Z,3.33
2018-06-04T17:56:01.395Z,4.97
2018-06-04T17:58:30.100Z,3.10
2018-06-04T18:00:58.533Z,5.37
2018-06-04T18:03:27.014Z,2.95
2018-06-04T18:05:55.471Z,5.62
2018-06-04T18:08:23.882Z,4.78
2018-06-04T18:10:52.760Z,3.00
2018-06-04T18:13:21.182Z,3.83
2018-06-04T18:15:50.234Z,3.00
2018-06-04T18:18:18.649Z,3.25
2018-06-04T18:20:46.782Z,3.90
2018-06-04T18:23:15.224Z,5.95
2018-06-04T18:25:43.647Z,3.33
2018-06-04T18:28:12.072Z,3.65
2018-06-04T18:30:40.520Z,5.15
2018-06-04T18:33:09.085Z,3.98
2018-06-04T18:35:37.209Z,3.50
2018-06-04T18:38:05.684Z,3.20
2018-06-04T18:40:34.099Z,3.60
2018-06-04T18:43:02.549Z,4.62
2018-06-04T18:45:30.964Z,3.27
2018-06-04T18:47:59.445Z,4.10
2018-06-04T18:50:27.956Z,3.40
2018-06-04T18:52:56.384Z,6.72
2018-06-04T18:55:24.784Z,4.12
2018-06-04T18:57:53.292Z,4.33
2018-06-04T19:00:21.769Z,4.15
2018-06-04T19:02:50.281Z,3.90
2018-06-04T19:05:18.433Z,3.98
2018-06-04T19:07:46.862Z,3.58
2018-06-04T19:10:15.288Z,4.83
2018-06-04T19:12:43.946Z,4.62
2018-06-04T19:15:12.407Z,4.80
2018-06-04T19:17:40.860Z,4.17
2018-06-04T19:20:09.322Z,7.00
2018-06-04T19:22:37.770Z,4.87
2018-06-04T19:25:05.883Z,4.35
2018-06-04T19:27:34.400Z,4.37
2018-06-04T19:30:03.116Z,4.42
2018-06-04T19:32:31.228Z,4.28
2018-06-04T19:34:59.836Z,4.10
2018-06-04T19:37:28.272Z,3.62
2018-06-04T19:39:56.381Z,4.08
2018-06-04T19:42:24.833Z,4.55
2018-06-04T19:44:53.291Z,4.20
2018-06-04T19:47:21.709Z,4.20
2018-06-04T19:49:49.846Z,4.67
2018-06-04T19:52:18.280Z,4.70
2018-06-04T19:54:46.695Z,5.53
2018-06-04T19:57:15.142Z,6.15
2018-06-04T19:59:43.653Z,4.95
2018-06-04T20:02:12.247Z,5.22
2018-06-04T20:04:40.689Z,4.87
2018-06-04T20:07:09.157Z,4.95
2018-06-04T20:09:38.102Z,5.03
2018-06-04T20:12:06.589Z,4.70
2018-06-04T20:14:35.032Z,4.42
2018-06-04T20:17:03.469Z,4.40
2018-06-04T20:19:32.057Z,4.75
2018-06-04T20:22:01.388Z,5.00
2018-06-04T20:24:29.844Z,5.37
2018-06-04T20:26:58.329Z,5.37
2018-06-04T20:29:26.867Z,6.85
2018-06-04T20:31:55.398Z,7.15
2018-06-04T20:34:23.841Z,4.97
2018-06-04T20:36:52.657Z,5.25
2018-06-04T20:39:21.128Z,4.58
2018-06-04T20:41:49.583Z,4.75
2018-06-04T20:44:18.038Z,4.90
2018-06-04T20:46:46.494Z,5.10
2018-06-04T20:49:14.694Z,4.85
2018-06-04T20:51:43.125Z,5.35
2018-06-04T20:54:12.589Z,5.00
2018-06-04T20:56:41.065Z,5.17
2018-06-04T20:59:09.553Z,6.80
2018-06-04T21:01:37.993Z,5.15
2018-06-04T21:04:06.473Z,5.15
2018-06-04T21:06:34.924Z,5.33
2018-06-04T21:09:03.459Z,5.55
2018-06-04T21:11:31.968Z,5.15
2018-06-04T21:14:00.101Z,5.12
2018-06-04T21:16:28.641Z,5.28
2018-06-04T21:18:57.141Z,5.08
2018-06-04T21:21:25.736Z,6.10
2018-06-04T21:23:54.186Z,5.75
2018-06-04T21:26:22.700Z,6.10
2018-06-04T21:28:51.249Z,5.72
2018-06-04T21:31:19.394Z,6.12
2018-06-04T21:33:47.900Z,5.28
2018-06-04T21:36:16.317Z,6.60
2018-06-04T21:38:45.101Z,5.97
2018-06-04T21:41:13.593Z,4.92
2018-06-04T21:43:41.752Z,5.90
2018-06-04T21:46:10.160Z,6.10
2018-06-04T21:48:42.592Z,5.28
2018-06-04T21:51:11.015Z,5.45
2018-06-04T21:53:39.128Z,5.90
2018-06-04T21:56:07.572Z,5.78
2018-06-04T21:58:35.768Z,5.25
2018-06-04T22:01:03.888Z,6.15
2018-06-04T22:03:32.312Z,5.60
2018-06-04T22:06:00.736Z,5.60
2018-06-04T22:08:29.204Z,5.65
2018-06-04T22:10:57.697Z,5.40
2018-06-04T22:13:26.111Z,5.47
2018-06-04T22:15:54.552Z,6.92
2018-06-04T22:18:22.684Z,5.97
2018-06-04T22:20:51.139Z,6.12
2018-06-04T22:23:19.552Z,5.42
2018-06-04T22:25:48.013Z,5.62
2018-06-04T22:28:16.527Z,6.35
2018-06-04T22:30:44.932Z,5.67
2018-06-04T22:33:13.051Z,5.62
2018-06-04T22:35:41.580Z,5.95
2018-06-04T22:38:10.060Z,6.10
2018-06-04T22:40:38.688Z,5.92
2018-06-04T22:43:06.809Z,5.78
2018-06-04T22:45:35.228Z,5.95
2018-06-04T22:48:03.656Z,6.10
2018-06-04T22:50:32.092Z,6.22
2018-06-04T22:53:00.513Z,6.20
2018-06-04T22:55:28.983Z,5.75
2018-06-04T22:57:57.100Z,5.85
2018-06-04T23:00:32.927Z,6.40
2018-06-04T23:03:01.696Z,5.95
2018-06-04T23:05:30.198Z,5.55
2018-06-04T23:07:58.765Z,6.67
2018-06-04T23:10:27.224Z,5.67
2018-06-04T23:12:55.655Z,7.05
2018-06-04T23:15:24.176Z,6.50
2018-06-04T23:17:52.577Z,5.78
2018-06-04T23:20:20.988Z,6.17
2018-06-04T23:22:49.471Z,6.22
2018-06-04T23:25:17.885Z,6.12
2018-06-04T23:27:46.362Z,6.50
2018-06-04T23:30:14.491Z,6.58
2018-06-04T23:32:42.913Z,6.40
2018-06-04T23:35:11.066Z,6.28
2018-06-04T23:37:39.513Z,5.60
2018-06-04T23:40:07.968Z,6.08
2018-06-04T23:42:36.630Z,7.03
2018-06-04T23:45:05.126Z,6.85
2018-06-04T23:47:33.559Z,6.62
2018-06-04T23:50:01.978Z,6.20
2018-06-04T23:52:30.678Z,6.20
2018-06-04T23:54:59.176Z,7.05
2018-06-04T23:57:27.581Z,6.92
2018-06-04T23:59:56.029Z,6.65
